createdAt,value
2017-05-02T00:00:46.196Z,0
2017-05-02T00:01:46.538Z,0
2017-05-02T00:02:46.582Z,0
2017-05-02T00:03:46.922Z,0
2017-05-02T00:04:46.959Z,0
2017-05-02T00:05:46.999Z,0
2017-05-02T00:06:46.416Z,0
2017-05-02T00:07:47.076Z,0
2017-05-02T00:08:47.109Z,0
2017-05-02T00:09:47.457Z,0
2017-05-02T00:10:46.877Z,0
2017-05-02T00:11:46.601Z,0
2017-05-02T00:12:46.952Z,0
2017-05-02T00:13:47.289Z,0
2017-05-02T00:14:46.712Z,0
2017-05-02T00:15:46.748Z,0
2017-05-02T00:16:46.791Z,0
2017-05-02T00:17:46.850Z,0
2017-05-02T00:18:47.166Z,0
2017-05-02T00:19:47.519Z,0
2017-05-02T00:20:47.240Z,0
2017-05-02T00:21:47.272Z,0
2017-05-02T00:22:47.319Z,0
2017-05-02T00:23:47.043Z,0
2017-05-02T00:24:47.117Z,0
2017-05-02T00:25:47.421Z,0
2017-05-02T00:26:47.153Z,0
2017-05-02T00:27:47.809Z,0
2017-05-02T00:28:47.847Z,0
2017-05-02T00:29:47.261Z,0
2017-05-02T00:30:47.297Z,0
2017-05-02T00:31:47.981Z,0
2017-05-02T00:32:47.678Z,0
2017-05-02T00:33:48.030Z,0
2017-05-02T00:34:47.760Z,0
2017-05-02T00:35:47.481Z,0
2017-05-02T00:36:47.824Z,0
2017-05-02T00:37:48.482Z,0
2017-05-02T00:38:48.212Z,0
2017-05-02T00:39:47.935Z,0
2017-05-02T00:40:47.678Z,0
2017-05-02T00:41:47.706Z,0
2017-05-02T00:42:48.048Z,0
2017-05-02T00:43:48.078Z,0
2017-05-02T00:44:48.124Z,0
2017-05-02T00:45:47.854Z,0
2017-05-02T00:46:48.192Z,0
2017-05-02T00:47:48.541Z,0
2017-05-02T00:48:48.269Z,0
2017-05-02T00:49:47.993Z,0
2017-05-02T00:50:48.647Z,0
2017-05-02T00:51:48.685Z,0
2017-05-02T00:52:48.744Z,0
2017-05-02T00:53:48.770Z,0
2017-05-02T00:54:48.793Z,0
2017-05-02T00:55:48.837Z,0
2017-05-02T00:56:48.559Z,0
2017-05-02T00:57:49.223Z,0
2017-05-02T00:58:48.942Z,0
2017-05-02T00:59:49.290Z,0
2017-05-02T01:00:48.397Z,0
2017-05-02T01:01:48.750Z,0
2017-05-02T01:02:48.779Z,0
2017-05-02T01:03:48.821Z,0
2017-05-02T01:04:48.852Z,0
2017-05-02T01:05:48.580Z,0
2017-05-02T01:06:48.924Z,0
2017-05-02T01:07:49.270Z,0
2017-05-02T01:08:49.614Z,0
2017-05-02T01:09:49.342Z,0
2017-05-02T01:10:49.066Z,0
2017-05-02T01:11:49.104Z,0
2017-05-02T01:12:49.153Z,0
2017-05-02T01:13:49.184Z,0
2017-05-02T01:14:48.908Z,0
2017-05-02T01:15:48.948Z,0
2017-05-02T01:16:48.978Z,0
2017-05-02T01:17:49.325Z,0
2017-05-02T01:18:49.669Z,0
2017-05-02T01:19:49.089Z,0
2017-05-02T01:20:49.125Z,0
2017-05-02T01:21:49.478Z,0
2017-05-02T01:22:49.200Z,0
2017-05-02T01:23:49.542Z,0
2017-05-02T01:24:49.579Z,0
2017-05-02T01:25:49.303Z,0
2017-05-02T01:26:49.662Z,0
2017-05-02T01:27:49.382Z,0
2017-05-02T01:28:50.040Z,0
2017-05-02T01:29:50.382Z,0
2017-05-02T01:30:49.497Z,0
2017-05-02T01:31:49.530Z,0
2017-05-02T01:32:49.563Z,0
2017-05-02T01:33:49.617Z,0
2017-05-02T01:34:50.255Z,0
2017-05-02T01:35:49.978Z,0
2017-05-02T01:36:49.706Z,0
2017-05-02T01:37:50.366Z,0
2017-05-02T01:38:50.092Z,0
2017-05-02T01:39:50.121Z,0
2017-05-02T01:40:50.469Z,0
2017-05-02T01:41:49.894Z,0
2017-05-02T01:42:50.550Z,0
2017-05-02T01:43:50.583Z,0
2017-05-02T01:44:50.312Z,0
2017-05-02T01:45:50.040Z,0
2017-05-02T01:46:50.085Z,0
2017-05-02T01:47:50.430Z,0
2017-05-02T01:48:50.460Z,0
2017-05-02T01:49:50.515Z,0
2017-05-02T01:50:50.248Z,0
2017-05-02T01:51:50.253Z,0
2017-05-02T01:52:50.300Z,0
2017-05-02T01:53:50.642Z,0
2017-05-02T01:54:50.991Z,0
2017-05-02T01:55:50.420Z,0
2017-05-02T01:56:51.065Z,0
2017-05-02T01:57:53.156Z,0
2017-05-02T01:58:51.437Z,0
2017-05-02T01:59:51.161Z,0
2017-05-02T02:00:50.584Z,0
2017-05-02T02:01:50.625Z,0
2017-05-02T02:02:51.280Z,0
2017-05-02T02:03:50.997Z,0
2017-05-02T02:04:51.351Z,0
2017-05-02T02:05:51.381Z,0
2017-05-02T02:06:51.114Z,0
2017-05-02T02:07:51.154Z,0
2017-05-02T02:08:50.880Z,0
2017-05-02T02:09:50.906Z,0
2017-05-02T02:10:50.944Z,0
2017-05-02T02:11:51.300Z,0
2017-05-02T02:12:51.645Z,0
2017-05-02T02:13:51.671Z,0
2017-05-02T02:14:51.094Z,0
2017-05-02T02:15:51.442Z,0
2017-05-02T02:16:51.473Z,0
2017-05-02T02:17:51.831Z,0
2017-05-02T02:18:51.859Z,0
2017-05-02T02:19:51.279Z,0
2017-05-02T02:20:51.649Z,0
2017-05-02T02:21:51.652Z,0
2017-05-02T02:22:52.317Z,0
2017-05-02T02:23:51.427Z,0
2017-05-02T02:24:52.080Z,0
2017-05-02T02:25:52.113Z,0
2017-05-02T02:26:51.838Z,0
2017-05-02T02:27:52.181Z,0
2017-05-02T02:28:51.912Z,0
2017-05-02T02:29:52.260Z,0
2017-05-02T02:30:51.684Z,0
2017-05-02T02:31:51.713Z,0
2017-05-02T02:32:51.764Z,0
2017-05-02T02:33:52.398Z,0
2017-05-02T02:34:51.824Z,0
2017-05-02T02:35:52.162Z,0
2017-05-02T02:36:52.203Z,0
2017-05-02T02:37:51.926Z,0
2017-05-02T02:38:52.910Z,0
2017-05-02T02:39:52.332Z,0
2017-05-02T02:40:52.353Z,0
2017-05-02T02:41:52.373Z,0
2017-05-02T02:42:52.731Z,0
2017-05-02T02:43:52.143Z,0
2017-05-02T02:44:52.482Z,0
2017-05-02T02:45:52.530Z,0
2017-05-02T02:46:52.560Z,0
2017-05-02T02:47:52.610Z,0
2017-05-02T02:48:52.855Z,0
2017-05-02T02:49:52.663Z,0
2017-05-02T02:50:52.395Z,0
2017-05-02T02:51:52.773Z,0
2017-05-02T02:52:52.789Z,0
2017-05-02T02:53:53.124Z,0
2017-05-02T02:54:53.153Z,0
2017-05-02T02:55:52.881Z,0
2017-05-02T02:56:52.918Z,0
2017-05-02T02:57:53.267Z,0
2017-05-02T02:58:52.995Z,0
2017-05-02T02:59:52.717Z,0
2017-05-02T03:00:53.062Z,0
2017-05-02T03:01:52.782Z,0
2017-05-02T03:02:53.178Z,0
2017-05-02T03:03:52.859Z,0
2017-05-02T03:04:52.901Z,0
2017-05-02T03:05:53.243Z,0
2017-05-02T03:06:53.585Z,0
2017-05-02T03:07:53.648Z,0
2017-05-02T03:08:53.681Z,0
2017-05-02T03:09:53.080Z,0
2017-05-02T03:10:53.105Z,0
2017-05-02T03:11:53.157Z,0
2017-05-02T03:12:53.508Z,0
2017-05-02T03:13:53.227Z,4
2017-05-02T03:14:53.875Z,4
2017-05-02T03:15:53.919Z,0
2017-05-02T03:16:54.254Z,4
2017-05-02T03:17:53.980Z,4
2017-05-02T03:18:54.021Z,4
2017-05-02T03:19:54.052Z,4
2017-05-02T03:20:54.092Z,4
2017-05-02T03:21:53.510Z,8
2017-05-02T03:22:53.540Z,12
2017-05-02T03:23:54.203Z,8
2017-05-02T03:24:54.234Z,12
2017-05-02T03:25:53.647Z,12
2017-05-02T03:26:53.998Z,16
2017-05-02T03:27:54.033Z,16
2017-05-02T03:28:54.705Z,16
2017-05-02T03:29:54.739Z,16
2017-05-02T03:30:54.438Z,16
2017-05-02T03:31:53.866Z,20
2017-05-02T03:32:54.213Z,20
2017-05-02T03:33:54.246Z,20
2017-05-02T03:34:54.589Z,24
2017-05-02T03:35:54.008Z,24
2017-05-02T03:36:54.963Z,24
2017-05-02T03:37:55.018Z,28
2017-05-02T03:38:54.738Z,28
2017-05-02T03:39:54.147Z,28
2017-05-02T03:40:54.792Z,36
2017-05-02T03:41:54.837Z,40
2017-05-02T03:42:54.572Z,44
2017-05-02T03:43:54.599Z,48
2017-05-02T03:44:54.635Z,52
2017-05-02T03:45:54.684Z,56
2017-05-02T03:46:54.411Z,60
2017-05-02T03:47:54.435Z,64
2017-05-02T03:48:54.474Z,64
2017-05-02T03:49:54.814Z,68
2017-05-02T03:50:54.550Z,76
2017-05-02T03:51:54.891Z,84
2017-05-02T03:52:55.231Z,92
2017-05-02T03:53:54.971Z,108
2017-05-02T03:54:54.997Z,120
2017-05-02T03:55:54.724Z,132
2017-05-02T03:56:54.759Z,144
2017-05-02T03:57:55.408Z,152
2017-05-02T03:58:54.837Z,160
2017-05-02T03:59:55.173Z,172
2017-05-02T04:00:54.900Z,184
2017-05-02T04:01:55.250Z,200
2017-05-02T04:02:55.588Z,220
2017-05-02T04:03:55.316Z,244
2017-05-02T04:04:55.362Z,264
2017-05-02T04:05:55.076Z,272
2017-05-02T04:06:55.464Z,276
2017-05-02T04:07:55.771Z,276
2017-05-02T04:08:55.498Z,284
2017-05-02T04:09:55.849Z,292
2017-05-02T04:10:55.569Z,312
2017-05-02T04:11:55.307Z,328
2017-05-02T04:12:55.952Z,336
2017-05-02T04:13:55.363Z,348
2017-05-02T04:14:56.032Z,360
2017-05-02T04:15:55.436Z,400
2017-05-02T04:16:55.783Z,444
2017-05-02T04:17:56.122Z,488
2017-05-02T04:18:55.855Z,528
2017-05-02T04:19:55.587Z,564
2017-05-02T04:20:55.929Z,584
2017-05-02T04:21:55.963Z,580
2017-05-02T04:22:55.693Z,588
2017-05-02T04:23:56.041Z,640
2017-05-02T04:24:56.066Z,680
2017-05-02T04:25:55.837Z,700
2017-05-02T04:26:55.823Z,716
2017-05-02T04:27:56.195Z,764
2017-05-02T04:28:56.515Z,816
2017-05-02T04:29:56.248Z,868
2017-05-02T04:30:55.970Z,888
2017-05-02T04:31:56.623Z,884
2017-05-02T04:32:56.383Z,860
2017-05-02T04:33:56.095Z,856
2017-05-02T04:34:56.732Z,888
2017-05-02T04:35:56.145Z,912
2017-05-02T04:36:56.202Z,908
2017-05-02T04:37:56.220Z,896
2017-05-02T04:38:56.569Z,916
2017-05-02T04:39:56.608Z,924
2017-05-02T04:40:56.951Z,960
2017-05-02T04:41:56.685Z,992
2017-05-02T04:42:56.712Z,1028
2017-05-02T04:43:56.749Z,1096
2017-05-02T04:44:56.785Z,1200
2017-05-02T04:45:57.126Z,1364
2017-05-02T04:46:56.857Z,1500
2017-05-02T04:47:56.588Z,1568
2017-05-02T04:48:57.238Z,1620
2017-05-02T04:49:57.335Z,1708
2017-05-02T04:50:57.001Z,1800
2017-05-02T04:51:56.732Z,1860
2017-05-02T04:52:57.067Z,1824
2017-05-02T04:53:57.112Z,1696
2017-05-02T04:54:56.888Z,1536
2017-05-02T04:55:57.179Z,1416
2017-05-02T04:56:56.898Z,1328
2017-05-02T04:57:57.285Z,1308
2017-05-02T04:58:57.591Z,1336
2017-05-02T04:59:57.322Z,1228
2017-05-02T05:00:57.045Z,1064
2017-05-02T05:01:57.084Z,936
2017-05-02T05:02:57.425Z,904
2017-05-02T05:03:57.468Z,888
2017-05-02T05:04:57.812Z,764
2017-05-02T05:05:57.843Z,800
2017-05-02T05:06:57.567Z,844
2017-05-02T05:07:57.602Z,932
2017-05-02T05:08:57.947Z,1036
2017-05-02T05:09:57.980Z,1156
2017-05-02T05:10:57.401Z,1124
2017-05-02T05:11:57.441Z,1100
2017-05-02T05:12:57.786Z,1220
2017-05-02T05:13:57.514Z,1332
2017-05-02T05:14:57.862Z,1332
2017-05-02T05:15:57.589Z,1300
2017-05-02T05:16:57.932Z,1328
2017-05-02T05:17:57.651Z,1376
2017-05-02T05:18:57.695Z,1340
2017-05-02T05:19:58.031Z,1416
2017-05-02T05:20:57.763Z,1468
2017-05-02T05:21:57.795Z,1572
2017-05-02T05:22:57.847Z,1536
2017-05-02T05:23:58.185Z,1424
2017-05-02T05:24:58.527Z,1292
2017-05-02T05:25:57.982Z,1220
2017-05-02T05:26:57.982Z,1152
2017-05-02T05:27:58.626Z,1132
2017-05-02T05:28:58.367Z,1176
2017-05-02T05:29:58.700Z,1280
2017-05-02T05:30:58.508Z,1420
2017-05-02T05:31:59.078Z,1568
2017-05-02T05:32:58.822Z,1700
2017-05-02T05:33:58.535Z,1712
2017-05-02T05:34:58.579Z,1740
2017-05-02T05:35:58.301Z,1592
2017-05-02T05:36:58.336Z,1572
2017-05-02T05:37:58.690Z,1596
2017-05-02T05:38:58.947Z,1548
2017-05-02T05:39:58.786Z,1448
2017-05-02T05:40:59.097Z,1492
2017-05-02T05:41:58.516Z,1496
2017-05-02T05:42:58.861Z,1404
2017-05-02T05:43:58.915Z,1420
2017-05-02T05:44:58.807Z,1336
2017-05-02T05:45:58.987Z,1288
2017-05-02T05:46:58.996Z,1396
2017-05-02T05:47:59.351Z,1564
2017-05-02T05:48:59.687Z,1820
2017-05-02T05:49:59.742Z,1964
2017-05-02T05:50:59.148Z,1916
2017-05-02T05:51:58.878Z,1848
2017-05-02T05:52:59.214Z,1740
2017-05-02T05:53:58.948Z,1584
2017-05-02T05:54:59.731Z,1824
2017-05-02T05:55:59.317Z,1928
2017-05-02T05:56:59.362Z,1700
2017-05-02T05:57:59.707Z,1556
2017-05-02T05:59:00.046Z,1572
2017-05-02T05:59:59.780Z,1536
2017-05-02T06:00:59.807Z,1500
2017-05-02T06:01:59.539Z,1548
2017-05-02T06:03:00.194Z,1448
2017-05-02T06:03:59.617Z,1308
2017-05-02T06:04:59.653Z,1364
2017-05-02T06:06:00.000Z,1316
2017-05-02T06:06:59.722Z,1348
2017-05-02T06:07:59.768Z,1480
2017-05-02T06:09:00.095Z,1476
2017-05-02T06:09:59.833Z,1340
2017-05-02T06:10:59.859Z,1280
2017-05-02T06:11:59.901Z,1228
2017-05-02T06:13:00.261Z,1332
2017-05-02T06:14:00.284Z,1536
2017-05-02T06:14:59.691Z,1652
2017-05-02T06:15:59.735Z,1536
2017-05-02T06:17:00.071Z,1388
2017-05-02T06:18:00.112Z,1320
2017-05-02T06:19:00.457Z,1268
2017-05-02T06:20:00.297Z,1336
2017-05-02T06:20:59.911Z,1548
2017-05-02T06:21:59.949Z,1960
2017-05-02T06:23:00.294Z,1956
2017-05-02T06:24:00.639Z,1912
2017-05-02T06:25:01.043Z,1736
2017-05-02T06:26:00.093Z,1584
2017-05-02T06:27:00.476Z,1872
2017-05-02T06:28:00.778Z,1784
2017-05-02T06:29:00.238Z,1572
2017-05-02T06:30:00.245Z,1636
2017-05-02T06:31:00.278Z,1484
2017-05-02T06:32:00.436Z,1544
2017-05-02T06:33:00.897Z,1612
2017-05-02T06:34:01.122Z,1620
2017-05-02T06:35:01.690Z,1668
2017-05-02T06:36:01.118Z,1592
2017-05-02T06:37:02.272Z,1520
2017-05-02T06:38:01.537Z,1516
2017-05-02T06:39:01.105Z,1552
2017-05-02T06:40:00.979Z,1588
2017-05-02T06:41:01.398Z,1496
2017-05-02T06:42:01.881Z,1372
2017-05-02T06:43:01.233Z,1276
2017-05-02T06:44:01.287Z,1300
2017-05-02T06:45:01.409Z,1308
2017-05-02T06:46:02.485Z,1428
2017-05-02T06:47:01.604Z,1568
2017-05-02T06:48:01.367Z,1624
2017-05-02T06:49:01.335Z,1588
2017-05-02T06:50:01.666Z,1616
2017-05-02T06:51:01.299Z,1640
2017-05-02T06:52:01.646Z,1792
2017-05-02T06:53:01.690Z,1904
2017-05-02T06:54:01.750Z,2016
2017-05-02T06:55:01.131Z,2416
2017-05-02T06:56:01.477Z,2736
2017-05-02T06:57:01.516Z,2772
2017-05-02T06:58:01.564Z,2540
2017-05-02T06:59:01.284Z,2508
2017-05-02T07:00:01.622Z,2436
2017-05-02T07:01:01.342Z,2092
2017-05-02T07:02:01.994Z,1980
2017-05-02T07:03:02.048Z,1984
2017-05-02T07:04:01.456Z,2096
2017-05-02T07:05:01.494Z,2144
2017-05-02T07:06:01.535Z,2164
2017-05-02T07:07:01.870Z,1868
2017-05-02T07:08:02.224Z,1772
2017-05-02T07:09:02.280Z,1700
2017-05-02T07:10:01.830Z,1780
2017-05-02T07:11:01.832Z,1828
2017-05-02T07:12:01.854Z,1864
2017-05-02T07:13:02.302Z,1980
2017-05-02T07:14:01.815Z,2140
2017-05-02T07:15:02.049Z,2048
2017-05-02T07:16:01.897Z,2084
2017-05-02T07:17:01.983Z,2124
2017-05-02T07:18:02.275Z,2264
2017-05-02T07:19:02.154Z,2428
2017-05-02T07:20:02.506Z,2328
2017-05-02T07:21:02.080Z,2208
2017-05-02T07:22:02.413Z,2548
2017-05-02T07:23:03.219Z,2684
2017-05-02T07:24:02.793Z,2644
2017-05-02T07:25:02.208Z,2892
2017-05-02T07:26:02.252Z,2908
2017-05-02T07:27:02.279Z,2884
2017-05-02T07:28:02.938Z,2768
2017-05-02T07:29:02.974Z,2596
2017-05-02T07:30:02.707Z,2796
2017-05-02T07:31:02.826Z,2464
2017-05-02T07:32:03.391Z,2536
2017-05-02T07:33:02.801Z,2444
2017-05-02T07:34:02.871Z,2436
2017-05-02T07:35:02.886Z,2380
2017-05-02T07:36:02.616Z,2364
2017-05-02T07:37:02.942Z,2400
2017-05-02T07:38:02.976Z,2040
2017-05-02T07:39:03.446Z,2036
2017-05-02T07:40:03.053Z,2048
2017-05-02T07:41:02.797Z,2096
2017-05-02T07:42:02.811Z,2304
2017-05-02T07:43:03.779Z,2592
2017-05-02T07:44:02.877Z,2716
2017-05-02T07:45:03.536Z,2588
2017-05-02T07:46:02.952Z,2544
2017-05-02T07:47:02.987Z,2256
2017-05-02T07:48:03.638Z,2104
2017-05-02T07:49:03.368Z,2132
2017-05-02T07:50:03.413Z,2372
2017-05-02T07:51:03.512Z,2488
2017-05-02T07:52:03.268Z,2564
2017-05-02T07:53:03.203Z,2648
2017-05-02T07:54:03.558Z,2956
2017-05-02T07:55:03.890Z,3112
2017-05-02T07:56:03.319Z,3268
2017-05-02T07:57:03.971Z,2952
2017-05-02T07:58:03.690Z,2624
2017-05-02T07:59:03.419Z,2628
2017-05-02T08:00:03.763Z,2624
2017-05-02T08:01:04.100Z,2716
2017-05-02T08:02:03.831Z,2492
2017-05-02T08:03:03.868Z,2272
2017-05-02T08:04:03.903Z,2148
2017-05-02T08:05:04.246Z,2284
2017-05-02T08:06:03.667Z,2072
2017-05-02T08:07:04.015Z,1972
2017-05-02T08:08:03.741Z,1964
2017-05-02T08:09:04.556Z,2056
2017-05-02T08:10:04.433Z,1804
2017-05-02T08:11:03.842Z,1912
2017-05-02T08:12:03.880Z,1784
2017-05-02T08:13:03.916Z,1920
2017-05-02T08:14:04.253Z,1804
2017-05-02T08:15:04.750Z,2072
2017-05-02T08:16:04.022Z,2112
2017-05-02T08:17:04.057Z,1840
2017-05-02T08:18:04.403Z,1920
2017-05-02T08:19:04.460Z,2108
2017-05-02T08:20:04.470Z,2236
2017-05-02T08:21:04.204Z,2240
2017-05-02T08:22:04.545Z,2360
2017-05-02T08:23:04.575Z,1968
2017-05-02T08:24:04.611Z,1860
2017-05-02T08:25:04.653Z,1892
2017-05-02T08:26:04.682Z,1864
2017-05-02T08:27:05.031Z,1892
2017-05-02T08:28:04.752Z,1676
2017-05-02T08:29:04.482Z,1660
2017-05-02T08:30:05.134Z,1448
2017-05-02T08:31:04.864Z,1488
2017-05-02T08:32:04.904Z,1536
2017-05-02T08:33:05.250Z,1632
2017-05-02T08:34:05.280Z,1684
2017-05-02T08:35:05.620Z,1940
2017-05-02T08:36:04.740Z,2124
2017-05-02T08:37:04.774Z,2232
2017-05-02T08:38:05.429Z,2124
2017-05-02T08:39:05.161Z,2440
2017-05-02T08:40:05.500Z,2352
2017-05-02T08:41:05.221Z,2168
2017-05-02T08:42:05.260Z,2912
2017-05-02T08:43:05.599Z,3176
2017-05-02T08:44:05.645Z,3492
2017-05-02T08:45:05.051Z,4424
2017-05-02T08:46:05.397Z,4836
2017-05-02T08:47:05.436Z,4536
2017-05-02T08:48:05.477Z,5324
2017-05-02T08:49:05.204Z,5700
2017-05-02T08:50:05.250Z,6332
2017-05-02T08:51:05.269Z,5680
2017-05-02T08:52:05.626Z,7120
2017-05-02T08:53:05.650Z,7196
2017-05-02T08:54:05.685Z,5036
2017-05-02T08:55:05.419Z,6808
2017-05-02T08:56:06.064Z,6304
2017-05-02T08:57:05.486Z,5764
2017-05-02T08:58:05.860Z,6352
2017-05-02T08:59:06.067Z,5736
2017-05-02T09:00:05.901Z,4080
2017-05-02T09:01:05.935Z,4012
2017-05-02T09:02:06.001Z,3948
2017-05-02T09:03:06.325Z,4108
2017-05-02T09:04:06.355Z,4016
2017-05-02T09:05:06.383Z,4336
2017-05-02T09:06:06.225Z,5980
2017-05-02T09:07:05.840Z,7348
2017-05-02T09:08:05.914Z,7644
2017-05-02T09:09:05.912Z,8240
2017-05-02T09:10:06.575Z,7428
2017-05-02T09:11:06.008Z,5956
2017-05-02T09:12:06.056Z,5064
2017-05-02T09:13:06.061Z,4684
2017-05-02T09:14:06.094Z,4716
2017-05-02T09:15:06.133Z,4628
2017-05-02T09:16:06.178Z,5452
2017-05-02T09:17:06.200Z,4744
2017-05-02T09:18:06.545Z,4660
2017-05-02T09:19:06.595Z,5032
2017-05-02T09:20:06.622Z,5872
2017-05-02T09:21:06.959Z,5720
2017-05-02T09:22:06.384Z,5660
2017-05-02T09:23:06.726Z,5620
2017-05-02T09:24:06.458Z,7368
2017-05-02T09:25:06.804Z,6792
2017-05-02T09:26:07.158Z,5956
2017-05-02T09:27:06.886Z,7076
2017-05-02T09:28:06.592Z,7532
2017-05-02T09:29:06.947Z,7056
2017-05-02T09:30:06.679Z,5860
2017-05-02T09:31:06.709Z,6132
2017-05-02T09:32:07.057Z,5548
2017-05-02T09:33:07.092Z,3988
2017-05-02T09:34:06.815Z,3736
2017-05-02T09:35:07.775Z,3888
2017-05-02T09:36:07.193Z,3420
2017-05-02T09:37:06.927Z,3376
2017-05-02T09:38:07.271Z,2912
2017-05-02T09:39:07.470Z,3352
2017-05-02T09:40:07.649Z,4440
2017-05-02T09:41:07.450Z,4320
2017-05-02T09:42:07.105Z,4052
2017-05-02T09:43:07.452Z,4208
2017-05-02T09:44:08.095Z,3584
2017-05-02T09:45:07.560Z,3588
2017-05-02T09:46:07.564Z,4176
2017-05-02T09:47:07.307Z,4088
2017-05-02T09:48:07.936Z,4068
2017-05-02T09:49:07.353Z,4452
2017-05-02T09:50:07.399Z,4572
2017-05-02T09:51:07.442Z,4720
2017-05-02T09:52:07.468Z,4784
2017-05-02T09:53:07.503Z,4584
2017-05-02T09:54:07.536Z,4688
2017-05-02T09:55:07.576Z,4680
2017-05-02T09:56:07.934Z,4908
2017-05-02T09:57:07.953Z,5468
2017-05-02T09:58:07.719Z,6032
2017-05-02T09:59:08.021Z,6524
2017-05-02T10:00:07.756Z,7480
2017-05-02T10:01:07.794Z,8924
2017-05-02T10:02:08.283Z,11364
2017-05-02T10:03:08.868Z,14588
2017-05-02T10:04:08.207Z,17600
2017-05-02T10:05:07.964Z,21088
2017-05-02T10:06:07.974Z,22976
2017-05-02T10:07:08.056Z,23648
2017-05-02T10:08:08.056Z,19456
2017-05-02T10:09:08.716Z,19264
2017-05-02T10:10:08.441Z,18432
2017-05-02T10:11:08.472Z,19360
2017-05-02T10:12:08.212Z,51168
2017-05-02T10:13:08.863Z,82560
2017-05-02T10:14:08.321Z,102560
2017-05-02T10:15:08.659Z,91200
2017-05-02T10:16:08.985Z,80832
2017-05-02T10:17:08.711Z,78336
2017-05-02T10:18:08.805Z,78432
2017-05-02T10:19:08.481Z,85088
2017-05-02T10:20:08.526Z,21760
2017-05-02T10:21:08.869Z,13812
2017-05-02T10:22:08.611Z,10540
2017-05-02T10:23:08.647Z,10108
2017-05-02T10:24:08.693Z,7100
2017-05-02T10:25:08.736Z,6356
2017-05-02T10:26:09.082Z,6340
2017-05-02T10:27:08.822Z,7552
2017-05-02T10:28:09.168Z,7736
2017-05-02T10:29:08.977Z,7424
2017-05-02T10:30:09.083Z,7552
2017-05-02T10:31:09.300Z,8720
2017-05-02T10:32:09.022Z,12544
2017-05-02T10:33:09.067Z,35456
2017-05-02T10:34:09.103Z,18816
2017-05-02T10:35:09.843Z,100064
2017-05-02T10:36:09.490Z,119936
2017-05-02T10:37:09.226Z,98624
2017-05-02T10:38:09.881Z,108128
2017-05-02T10:39:09.932Z,102560
2017-05-02T10:40:09.657Z,103424
2017-05-02T10:41:09.398Z,29056
2017-05-02T10:42:09.748Z,33504
2017-05-02T10:43:11.290Z,88320
2017-05-02T10:44:09.834Z,16736
2017-05-02T10:45:09.565Z,14732
2017-05-02T10:46:09.920Z,14836
2017-05-02T10:47:09.963Z,16332
2017-05-02T10:48:10.095Z,18016
2017-05-02T10:49:10.068Z,14236
2017-05-02T10:50:09.784Z,18592
2017-05-02T10:51:09.849Z,18688
2017-05-02T10:52:09.879Z,15804
2017-05-02T10:53:10.533Z,17600
2017-05-02T10:54:10.267Z,14624
2017-05-02T10:55:09.995Z,14204
2017-05-02T10:56:10.040Z,12072
2017-05-02T10:57:10.083Z,10860
2017-05-02T10:58:10.118Z,10204
2017-05-02T10:59:10.474Z,15288
2017-05-02T11:00:10.828Z,9136
2017-05-02T11:01:10.246Z,9080
2017-05-02T11:02:10.612Z,10072
2017-05-02T11:03:10.631Z,10412
2017-05-02T11:04:10.366Z,10104
2017-05-02T11:05:10.708Z,11092
2017-05-02T11:06:10.770Z,14124
2017-05-02T11:07:10.488Z,21472
2017-05-02T11:08:10.839Z,18752
2017-05-02T11:09:10.880Z,85536
2017-05-02T11:10:11.225Z,101056
2017-05-02T11:11:10.651Z,104832
2017-05-02T11:12:11.072Z,109536
2017-05-02T11:13:10.726Z,14204
2017-05-02T11:14:11.389Z,12388
2017-05-02T11:15:10.836Z,13624
2017-05-02T11:16:11.168Z,16016
2017-05-02T11:17:10.897Z,17536
2017-05-02T11:18:11.242Z,16392
2017-05-02T11:19:11.282Z,14112
2017-05-02T11:20:11.335Z,15320
2017-05-02T11:21:11.055Z,16504
2017-05-02T11:22:11.098Z,14716
2017-05-02T11:23:11.135Z,95808
2017-05-02T11:24:11.176Z,89216
2017-05-02T11:25:11.223Z,15356
2017-05-02T11:26:11.564Z,14424
2017-05-02T11:27:11.311Z,14444
2017-05-02T11:28:11.651Z,21184
2017-05-02T11:29:11.723Z,14224
2017-05-02T11:30:11.422Z,14436
2017-05-02T11:31:11.778Z,13604
2017-05-02T11:32:11.813Z,13308
2017-05-02T11:33:11.541Z,13744
2017-05-02T11:34:11.896Z,14956
2017-05-02T11:35:11.618Z,14916
2017-05-02T11:36:11.971Z,12848
2017-05-02T11:37:12.019Z,13420
2017-05-02T11:38:12.057Z,14068
2017-05-02T11:39:11.781Z,16640
2017-05-02T11:40:12.130Z,17088
2017-05-02T11:41:12.178Z,14152
2017-05-02T11:42:11.908Z,12200
2017-05-02T11:43:11.941Z,11692
2017-05-02T11:44:12.299Z,11352
2017-05-02T11:45:12.332Z,11108
2017-05-02T11:46:12.058Z,11348
2017-05-02T11:47:12.412Z,11824
2017-05-02T11:48:12.146Z,11116
2017-05-02T11:49:12.486Z,11276
2017-05-02T11:50:12.245Z,12116
2017-05-02T11:51:12.263Z,12484
2017-05-02T11:52:12.301Z,13256
2017-05-02T11:53:12.962Z,14200
2017-05-02T11:54:12.381Z,13628
2017-05-02T11:55:12.416Z,10972
2017-05-02T11:56:12.471Z,9796
2017-05-02T11:57:12.804Z,9848
2017-05-02T11:58:12.536Z,10364
2017-05-02T11:59:12.887Z,9576
2017-05-02T12:00:12.674Z,6004
2017-05-02T12:01:12.968Z,5840
2017-05-02T12:02:12.712Z,6676
2017-05-02T12:03:13.023Z,9408
2017-05-02T12:04:13.084Z,12936
2017-05-02T12:05:12.821Z,13588
2017-05-02T12:06:13.472Z,11780
2017-05-02T12:07:12.904Z,11428
2017-05-02T12:08:12.929Z,10908
2017-05-02T12:09:12.983Z,10004
2017-05-02T12:10:13.318Z,9656
2017-05-02T12:11:13.052Z,9508
2017-05-02T12:12:13.096Z,8312
2017-05-02T12:13:13.444Z,6968
2017-05-02T12:14:13.517Z,5500
2017-05-02T12:15:13.825Z,5104
2017-05-02T12:16:13.551Z,4992
2017-05-02T12:17:13.285Z,4896
2017-05-02T12:18:13.967Z,4220
2017-05-02T12:19:13.368Z,3604
2017-05-02T12:20:13.432Z,3580
2017-05-02T12:21:13.455Z,3764
2017-05-02T12:22:13.794Z,3452
2017-05-02T12:23:13.832Z,3724
2017-05-02T12:24:13.872Z,3936
2017-05-02T12:25:13.903Z,3588
2017-05-02T12:26:13.639Z,3700
2017-05-02T12:27:14.289Z,4184
2017-05-02T12:28:13.718Z,4796
2017-05-02T12:29:13.749Z,4988
2017-05-02T12:30:13.782Z,4908
2017-05-02T12:31:13.826Z,4436
2017-05-02T12:32:13.866Z,3860
2017-05-02T12:33:13.903Z,3624
2017-05-02T12:34:14.559Z,3408
2017-05-02T12:35:13.982Z,3172
2017-05-02T12:36:14.018Z,3068
2017-05-02T12:37:14.064Z,3040
2017-05-02T12:38:15.034Z,3164
2017-05-02T12:39:14.138Z,3620
2017-05-02T12:40:14.170Z,3576
2017-05-02T12:41:14.211Z,3844
2017-05-02T12:42:14.559Z,4220
2017-05-02T12:43:14.915Z,4200
2017-05-02T12:44:14.329Z,4260
2017-05-02T12:45:14.404Z,3964
2017-05-02T12:46:14.402Z,3468
2017-05-02T12:47:14.441Z,3140
2017-05-02T12:48:15.401Z,3108
2017-05-02T12:49:15.145Z,3592
2017-05-02T12:50:14.861Z,4632
2017-05-02T12:51:14.606Z,5940
2017-05-02T12:52:14.938Z,7596
2017-05-02T12:53:14.980Z,9044
2017-05-02T12:54:14.712Z,8316
2017-05-02T12:57:14.738Z,5004
2017-05-02T12:57:26.240Z,4816
2017-05-02T12:58:26.586Z,4200
2017-05-02T12:59:26.929Z,3856
2017-05-02T13:00:26.721Z,3568
2017-05-02T13:01:26.433Z,3660
2017-05-02T13:02:26.740Z,4396
2017-05-02T13:03:26.788Z,4876
2017-05-02T13:04:26.809Z,4504
2017-05-02T13:05:26.543Z,3800
2017-05-02T13:06:26.898Z,3084
2017-05-02T13:07:26.616Z,2272
2017-05-02T13:08:27.273Z,1940
2017-05-02T13:09:26.699Z,1924
2017-05-02T13:10:27.042Z,1860
2017-05-02T13:11:27.081Z,1900
2017-05-02T13:12:26.808Z,2260
2017-05-02T13:13:27.515Z,3256
2017-05-02T13:14:26.885Z,3752
2017-05-02T13:15:26.923Z,3616
2017-05-02T13:16:27.268Z,3528
2017-05-02T13:17:27.353Z,3488
2017-05-02T13:18:27.771Z,3352
2017-05-02T13:19:27.709Z,3280
2017-05-02T13:20:27.115Z,2900
2017-05-02T13:21:27.163Z,2848
2017-05-02T13:22:27.801Z,2764
2017-05-02T13:23:27.243Z,2544
2017-05-02T13:24:27.895Z,2540
2017-05-02T13:25:27.305Z,2632
2017-05-02T13:26:27.340Z,2624
2017-05-02T13:27:28.007Z,2656
2017-05-02T13:28:27.736Z,2940
2017-05-02T13:29:28.083Z,3572
2017-05-02T13:30:28.118Z,4560
2017-05-02T13:31:27.533Z,5560
2017-05-02T13:32:27.887Z,6476
2017-05-02T13:33:27.918Z,7296
2017-05-02T13:34:27.704Z,7964
2017-05-02T13:35:28.303Z,9196
2017-05-02T13:36:27.718Z,10012
2017-05-02T13:37:28.384Z,10088
2017-05-02T13:38:28.101Z,9360
2017-05-02T13:39:28.151Z,8976
2017-05-02T13:40:27.873Z,9496